sensor_id;sensor_type;location;lat;lon;timestamp;pressure;altitude;pressure_sealevel;temperature;humidity
7168;BME280;3625;51.762;14.320;2023-05-31T00:01:37;101510.66;;;12.77;80.00
7168;BME280;3625;51.762;14.320;2023-05-31T00:04:06;101512.44;;;12.77;83.64
7168;BME280;3625;51.762;14.320;2023-05-31T00:06:35;101512.34;;;12.83;84.42
7168;BME280;3625;51.762;14.320;2023-05-31T00:09:04;101504.41;;;12.81;83.77
7168;BME280;3625;51.762;14.320;2023-05-31T00:11:32;101512.38;;;12.80;84.64
7168;BME280;3625;51.762;14.320;2023-05-31T00:14:02;101508.88;;;12.79;82.91
7168;BME280;3625;51.762;14.320;2023-05-31T00:16:30;101513.44;;;12.68;80.26
7168;BME280;3625;51.762;14.320;2023-05-31T00:19:19;101513.44;;;12.68;83.72
7168;BME280;3625;51.762;14.320;2023-05-31T00:21:47;101507.31;;;12.63;83.99
7168;BME280;3625;51.762;14.320;2023-05-31T00:24:16;101514.47;;;12.60;84.98
7168;BME280;3625;51.762;14.320;2023-05-31T00:26:45;101526.00;;;12.57;85.40
7168;BME280;3625;51.762;14.320;2023-05-31T00:29:15;101511.19;;;12.39;83.46
7168;BME280;3625;51.762;14.320;2023-05-31T00:31:43;101516.50;;;12.39;84.51
7168;BME280;3625;51.762;14.320;2023-05-31T00:34:12;101514.72;;;12.38;85.98
7168;BME280;3625;51.762;14.320;2023-05-31T00:36:41;101520.03;;;12.38;88.95
7168;BME280;3625;51.762;14.320;2023-05-31T00:39:09;101521.81;;;12.38;88.15
7168;BME280;3625;51.762;14.320;2023-05-31T00:41:38;101491.03;;;12.26;88.75
7168;BME280;3625;51.762;14.320;2023-05-31T00:44:06;101520.09;;;12.35;88.95
7168;BME280;3625;51.762;14.320;2023-05-31T00:46:39;101522.69;;;12.37;88.86
7168;BME280;3625;51.762;14.320;2023-05-31T00:49:10;101523.66;;;12.31;89.62
7168;BME280;3625;51.762;14.320;2023-05-31T00:51:41;101525.56;;;12.22;89.47
7168;BME280;3625;51.762;14.320;2023-05-31T00:54:09;101534.47;;;12.18;90.11
7168;BME280;3625;51.762;14.320;2023-05-31T00:56:38;101521.31;;;12.05;89.86
7168;BME280;3625;51.762;14.320;2023-05-31T00:59:08;101529.25;;;12.08;91.24
7168;BME280;3625;51.762;14.320;2023-05-31T01:01:39;101512.56;;;11.97;91.04
7168;BME280;3625;51.762;14.320;2023-05-31T01:04:08;101515.34;;;11.87;89.73
7168;BME280;3625;51.762;14.320;2023-05-31T01:06:37;101522.44;;;11.85;91.49
7168;BME280;3625;51.762;14.320;2023-05-31T01:09:07;101519.81;;;11.83;91.95
7168;BME280;3625;51.762;14.320;2023-05-31T01:11:59;101526.06;;;11.73;91.89
7168;BME280;3625;51.762;14.320;2023-05-31T01:14:52;101531.38;;;11.68;92.25
7168;BME280;3625;51.762;14.320;2023-05-31T01:17:39;101524.44;;;11.58;91.36
7168;BME280;3625;51.762;14.320;2023-05-31T01:20:16;101531.63;;;11.43;90.67
7168;BME280;3625;51.762;14.320;2023-05-31T01:23:04;101531.75;;;11.30;90.56
7168;BME280;3625;51.762;14.320;2023-05-31T01:25:57;101528.28;;;11.19;90.41
7168;BME280;3625;51.762;14.320;2023-05-31T01:28:36;101524.78;;;11.16;91.75
7168;BME280;3625;51.762;14.320;2023-05-31T01:31:09;101509.00;;;11.01;92.48
7168;BME280;3625;51.762;14.320;2023-05-31T01:33:43;101537.22;;;11.06;91.36
7168;BME280;3625;51.762;14.320;2023-05-31T01:36:12;101532.88;;;10.93;90.61
7168;BME280;3625;51.762;14.320;2023-05-31T01:38:42;101524.94;;;10.91;92.72
7168;BME280;3625;51.762;14.320;2023-05-31T01:41:11;101437.09;;;10.30;91.49
7168;BME280;3625;51.762;14.320;2023-05-31T01:43:44;101476.63;;;10.57;93.74
7168;BME280;3625;51.762;14.320;2023-05-31T01:46:17;101524.94;;;10.90;92.39
7168;BME280;3625;51.762;14.320;2023-05-31T01:48:47;101521.47;;;10.86;90.72
7168;BME280;3625;51.762;14.320;2023-05-31T01:51:16;101532.94;;;10.87;90.02
7168;BME280;3625;51.762;14.320;2023-05-31T01:53:47;101535.59;;;10.84;90.15
7168;BME280;3625;51.762;14.320;2023-05-31T01:56:21;101535.59;;;10.82;90.89
7168;BME280;3625;51.762;14.320;2023-05-31T01:58:55;101527.69;;;10.76;90.57
7168;BME280;3625;51.762;14.320;2023-05-31T02:01:26;101506.63;;;10.56;90.31
7168;BME280;3625;51.762;14.320;2023-05-31T02:03:57;101525.09;;;10.64;93.09
7168;BME280;3625;51.762;14.320;2023-05-31T02:06:25;101521.63;;;10.59;92.77
7168;BME280;3625;51.762;14.320;2023-05-31T02:08:55;101526.06;;;10.54;93.15
7168;BME280;3625;51.762;14.320;2023-05-31T02:11:27;101527.84;;;10.53;95.90
7168;BME280;3625;51.762;14.320;2023-05-31T02:13:57;101524.31;;;10.53;95.86
7168;BME280;3625;51.762;14.320;2023-05-31T02:16:26;101524.34;;;10.42;94.84
7168;BME280;3625;51.762;14.320;2023-05-31T02:18:54;101524.38;;;10.32;93.92
7168;BME280;3625;51.762;14.320;2023-05-31T02:21:25;101520.91;;;10.20;93.59
7168;BME280;3625;51.762;14.320;2023-05-31T02:23:54;101528.81;;;10.13;94.06
7168;BME280;3625;51.762;14.320;2023-05-31T02:26:23;101527.09;;;10.06;93.72
7168;BME280;3625;51.762;14.320;2023-05-31T02:28:51;101528.00;;;9.99;93.73
7168;BME280;3625;51.762;14.320;2023-05-31T02:31:24;101473.47;;;9.66;93.78
7168;BME280;3625;51.762;14.320;2023-05-31T02:33:53;101528.03;;;9.93;94.06
7168;BME280;3625;51.762;14.320;2023-05-31T02:36:21;101519.22;;;9.91;94.03
7168;BME280;3625;51.762;14.320;2023-05-31T02:38:50;101520.09;;;9.88;94.34
7168;BME280;3625;51.762;14.320;2023-05-31T02:41:18;101528.00;;;9.88;94.86
7168;BME280;3625;51.762;14.320;2023-05-31T02:43:47;101529.78;;;9.88;94.77
7168;BME280;3625;51.762;14.320;2023-05-31T02:46:16;101525.38;;;9.90;96.43
7168;BME280;3625;51.762;14.320;2023-05-31T02:48:46;101530.66;;;9.99;98.27
7168;BME280;3625;51.762;14.320;2023-05-31T02:51:15;101529.75;;;9.97;96.06
7168;BME280;3625;51.762;14.320;2023-05-31T02:54:16;101504.25;;;9.83;95.53
7168;BME280;3625;51.762;14.320;2023-05-31T02:56:45;101523.59;;;9.87;95.64
7168;BME280;3625;51.762;14.320;2023-05-31T02:59:16;101482.28;;;9.56;95.26
7168;BME280;3625;51.762;14.320;2023-05-31T03:01:55;101524.50;;;9.78;95.42
7168;BME280;3625;51.762;14.320;2023-05-31T03:04:52;101522.75;;;9.80;98.04
7168;BME280;3625;51.762;14.320;2023-05-31T03:07:22;101525.41;;;9.85;98.32
7168;BME280;3625;51.762;14.320;2023-05-31T03:09:50;101520.09;;;9.80;96.79
7168;BME280;3625;51.762;14.320;2023-05-31T03:12:19;101527.16;;;9.84;97.56
7168;BME280;3625;51.762;14.320;2023-05-31T03:14:48;101525.41;;;9.82;96.01
7168;BME280;3625;51.762;14.320;2023-05-31T03:17:17;101534.22;;;9.84;95.92
7168;BME280;3625;51.762;14.320;2023-05-31T03:19:47;101513.94;;;9.78;95.71
7168;BME280;3625;51.762;14.320;2023-05-31T03:22:18;101525.38;;;9.88;95.65
7168;BME280;3625;51.762;14.320;2023-05-31T03:24:48;101532.44;;;9.92;95.57
7168;BME280;3625;51.762;14.320;2023-05-31T03:27:17;101535.94;;;9.97;95.41
7168;BME280;3625;51.762;14.320;2023-05-31T03:29:46;101531.53;;;10.01;95.70
7168;BME280;3625;51.762;14.320;2023-05-31T03:32:14;101532.41;;;10.01;95.95
7168;BME280;3625;51.762;14.320;2023-05-31T03:34:43;101535.06;;;10.03;96.49
7168;BME280;3625;51.762;14.320;2023-05-31T03:37:12;101542.94;;;10.04;96.67
7168;BME280;3625;51.762;14.320;2023-05-31T03:39:47;101532.38;;;10.04;96.87
7168;BME280;3625;51.762;14.320;2023-05-31T03:42:25;101536.78;;;10.04;97.38
7168;BME280;3625;51.762;14.320;2023-05-31T03:44:53;101509.53;;;9.91;98.44
7168;BME280;3625;51.762;14.320;2023-05-31T03:47:22;101452.34;;;9.60;98.88
7168;BME280;3625;51.762;14.320;2023-05-31T03:49:51;101464.66;;;9.65;98.87
7168;BME280;3625;51.762;14.320;2023-05-31T03:52:19;101491.91;;;9.81;98.81
7168;BME280;3625;51.762;14.320;2023-05-31T03:54:50;101502.47;;;9.89;98.76
7168;BME280;3625;51.762;14.320;2023-05-31T03:57:18;101537.63;;;10.12;98.64
7168;BME280;3625;51.762;14.320;2023-05-31T03:59:47;101542.09;;;10.17;98.81
7168;BME280;3625;51.762;14.320;2023-05-31T04:02:17;101496.28;;;9.96;98.92
7168;BME280;3625;51.762;14.320;2023-05-31T04:04:46;101535.84;;;10.29;99.08
7168;BME280;3625;51.762;14.320;2023-05-31T04:07:15;101542.91;;;10.36;98.63
7168;BME280;3625;51.762;14.320;2023-05-31T04:09:43;101539.34;;;10.42;98.58
7168;BME280;3625;51.762;14.320;2023-05-31T04:12:27;101541.06;;;10.50;98.71
7168;BME280;3625;51.762;14.320;2023-05-31T04:15:10;101493.56;;;10.28;98.66
7168;BME280;3625;51.762;14.320;2023-05-31T04:17:39;101541.88;;;10.65;99.03
7168;BME280;3625;51.762;14.320;2023-05-31T04:20:09;101543.63;;;10.72;99.57
7168;BME280;3625;51.762;14.320;2023-05-31T04:22:38;101522.50;;;10.63;99.41
7168;BME280;3625;51.762;14.320;2023-05-31T04:25:07;101537.41;;;10.77;99.76
7168;BME280;3625;51.762;14.320;2023-05-31T04:27:43;101513.63;;;10.70;100.00
7168;BME280;3625;51.762;14.320;2023-05-31T04:30:12;101532.91;;;10.90;100.00
7168;BME280;3625;51.762;14.320;2023-05-31T04:32:42;101539.00;;;11.04;100.00
7168;BME280;3625;51.762;14.320;2023-05-31T04:35:11;101529.34;;;10.97;99.99
7168;BME280;3625;51.762;14.320;2023-05-31T04:37:45;101514.34;;;10.96;99.81
7168;BME280;3625;51.762;14.320;2023-05-31T04:40:15;101552.13;;;11.22;99.71
7168;BME280;3625;51.762;14.320;2023-05-31T04:42:45;101556.47;;;11.32;99.35
7168;BME280;3625;51.762;14.320;2023-05-31T04:45:23;101540.53;;;11.35;99.31
7168;BME280;3625;51.762;14.320;2023-05-31T04:47:53;101552.75;;;11.53;99.11
7168;BME280;3625;51.762;14.320;2023-05-31T04:50:22;101536.84;;;11.50;98.39
7168;BME280;3625;51.762;14.320;2023-05-31T04:52:58;101555.25;;;11.70;97.86
7168;BME280;3625;51.762;14.320;2023-05-31T04:55:28;101550.78;;;11.78;97.63
7168;BME280;3625;51.762;14.320;2023-05-31T04:58:03;101555.09;;;11.88;97.38
7168;BME280;3625;51.762;14.320;2023-05-31T05:00:33;101512.81;;;11.73;97.36
7168;BME280;3625;51.762;14.320;2023-05-31T05:03:08;101550.50;;;12.04;96.80
7168;BME280;3625;51.762;14.320;2023-05-31T05:05:38;101551.28;;;12.14;96.55
7168;BME280;3625;51.762;14.320;2023-05-31T05:08:07;101549.44;;;12.22;96.46
7168;BME280;3625;51.762;14.320;2023-05-31T05:10:37;101544.00;;;12.32;95.89
7168;BME280;3625;51.762;14.320;2023-05-31T05:13:08;101546.47;;;12.46;95.55
7168;BME280;3625;51.762;14.320;2023-05-31T05:15:39;101550.66;;;12.64;94.98
7168;BME280;3625;51.762;14.320;2023-05-31T05:18:08;101554.81;;;12.86;94.56
7168;BME280;3625;51.762;14.320;2023-05-31T05:20:38;101535.97;;;13.03;93.17
7168;BME280;3625;51.762;14.320;2023-05-31T05:23:08;101553.22;;;13.34;92.15
7168;BME280;3625;51.762;14.320;2023-05-31T05:25:37;101564.38;;;13.57;91.10
7168;BME280;3625;51.762;14.320;2023-05-31T05:28:07;101551.59;;;13.78;89.73
7168;BME280;3625;51.762;14.320;2023-05-31T05:30:38;101555.69;;;13.95;89.03
7168;BME280;3625;51.762;14.320;2023-05-31T05:33:07;101551.84;;;14.12;87.85
7168;BME280;3625;51.762;14.320;2023-05-31T05:35:40;101558.59;;;14.29;86.94
7168;BME280;3625;51.762;14.320;2023-05-31T05:38:08;101503.88;;;14.15;85.84
7168;BME280;3625;51.762;14.320;2023-05-31T05:40:37;101487.78;;;14.21;84.70
7168;BME280;3625;51.762;14.320;2023-05-31T05:43:08;101550.69;;;14.69;83.74
7168;BME280;3625;51.762;14.320;2023-05-31T05:45:52;101536.50;;;14.69;82.97
7168;BME280;3625;51.762;14.320;2023-05-31T05:48:21;101552.00;;;14.90;82.51
7168;BME280;3625;51.762;14.320;2023-05-31T05:50:50;101473.75;;;14.56;81.48
7168;BME280;3625;51.762;14.320;2023-05-31T05:53:21;101545.44;;;15.05;81.77
7168;BME280;3625;51.762;14.320;2023-05-31T05:55:53;101435.03;;;14.41;81.26
7168;BME280;3625;51.762;14.320;2023-05-31T05:58:28;101532.06;;;15.06;80.88
7168;BME280;3625;51.762;14.320;2023-05-31T06:01:22;101551.31;;;15.21;80.56
7168;BME280;3625;51.762;14.320;2023-05-31T06:03:56;101547.63;;;15.25;79.96
7168;BME280;3625;51.762;14.320;2023-05-31T06:06:24;101554.66;;;15.29;80.05
7168;BME280;3625;51.762;14.320;2023-05-31T06:08:54;101551.88;;;15.33;79.86
7168;BME280;3625;51.762;14.320;2023-05-31T06:11:23;101558.94;;;15.36;79.41
7168;BME280;3625;51.762;14.320;2023-05-31T06:13:54;101556.22;;;15.37;79.78
7168;BME280;3625;51.762;14.320;2023-05-31T06:16:30;101565.00;;;15.41;79.72
7168;BME280;3625;51.762;14.320;2023-05-31T06:19:00;101563.09;;;15.47;79.18
7168;BME280;3625;51.762;14.320;2023-05-31T06:21:30;101563.84;;;15.53;78.58
7168;BME280;3625;51.762;14.320;2023-05-31T06:24:01;101566.41;;;15.57;78.08
7168;BME280;3625;51.762;14.320;2023-05-31T06:26:30;101570.75;;;15.63;77.69
7168;BME280;3625;51.762;14.320;2023-05-31T06:29:00;101559.91;;;15.69;76.69
7168;BME280;3625;51.762;14.320;2023-05-31T06:31:54;101556.13;;;15.77;76.27
7168;BME280;3625;51.762;14.320;2023-05-31T06:34:27;101561.25;;;15.85;76.13
7168;BME280;3625;51.762;14.320;2023-05-31T06:36:59;101564.56;;;15.95;75.33
7168;BME280;3625;51.762;14.320;2023-05-31T06:39:29;101565.34;;;16.00;74.61
7168;BME280;3625;51.762;14.320;2023-05-31T06:42:00;101563.41;;;16.05;73.72
7168;BME280;3625;51.762;14.320;2023-05-31T06:44:48;101566.81;;;16.10;72.81
7168;BME280;3625;51.762;14.320;2023-05-31T06:47:42;101561.34;;;16.14;72.91
7168;BME280;3625;51.762;14.320;2023-05-31T06:50:19;101484.28;;;15.70;72.66
7168;BME280;3625;51.762;14.320;2023-05-31T06:53:09;101561.00;;;16.27;72.10
7168;BME280;3625;51.762;14.320;2023-05-31T06:55:46;101555.50;;;16.33;72.19
7168;BME280;3625;51.762;14.320;2023-05-31T06:58:19;101561.34;;;16.45;71.37
7168;BME280;3625;51.762;14.320;2023-05-31T07:00:55;101564.59;;;16.56;70.37
7168;BME280;3625;51.762;14.320;2023-05-31T07:03:24;101565.38;;;16.62;69.82
7168;BME280;3625;51.762;14.320;2023-05-31T07:05:53;101534.59;;;16.47;70.09
7168;BME280;3625;51.762;14.320;2023-05-31T07:08:22;101559.78;;;16.69;70.17
7168;BME280;3625;51.762;14.320;2023-05-31T07:11:29;101556.19;;;16.70;69.24
7168;BME280;3625;51.762;14.320;2023-05-31T07:14:00;101558.53;;;16.82;68.12
7168;BME280;3625;51.762;14.320;2023-05-31T07:16:31;101554.66;;;16.92;68.01
7168;BME280;3625;51.762;14.320;2023-05-31T07:19:00;101556.00;;;17.06;65.16
7168;BME280;3625;51.762;14.320;2023-05-31T07:21:29;101527.97;;;16.91;65.70
7168;BME280;3625;51.762;14.320;2023-05-31T07:23:58;101560.09;;;17.17;65.84
7168;BME280;3625;51.762;14.320;2023-05-31T07:26:27;101558.06;;;17.25;65.81
7168;BME280;3625;51.762;14.320;2023-05-31T07:28:55;101569.28;;;17.37;65.19
7168;BME280;3625;51.762;14.320;2023-05-31T07:31:24;101518.84;;;17.24;63.06
7168;BME280;3625;51.762;14.320;2023-05-31T07:33:54;101559.78;;;17.54;63.77
7168;BME280;3625;51.762;14.320;2023-05-31T07:36:23;101559.66;;;17.57;64.03
7168;BME280;3625;51.762;14.320;2023-05-31T07:38:53;101494.81;;;17.23;64.32
7168;BME280;3625;51.762;14.320;2023-05-31T07:41:21;101554.19;;;17.62;64.40
7168;BME280;3625;51.762;14.320;2023-05-31T07:43:51;101541.75;;;17.59;64.17
7168;BME280;3625;51.762;14.320;2023-05-31T07:46:22;101546.63;;;17.75;64.26
7168;BME280;3625;51.762;14.320;2023-05-31T07:48:50;101523.56;;;17.70;64.04
7168;BME280;3625;51.762;14.320;2023-05-31T07:51:22;101543.94;;;17.99;63.90
7168;BME280;3625;51.762;14.320;2023-05-31T07:53:51;101546.84;;;18.18;62.09
7168;BME280;3625;51.762;14.320;2023-05-31T07:56:19;101481.72;;;17.93;62.26
7168;BME280;3625;51.762;14.320;2023-05-31T07:58:48;101520.50;;;18.31;61.77
7168;BME280;3625;51.762;14.320;2023-05-31T08:01:16;101537.97;;;18.41;60.87
7168;BME280;3625;51.762;14.320;2023-05-31T08:03:45;101545.72;;;18.48;60.73
7168;BME280;3625;51.762;14.320;2023-05-31T08:06:14;101538.31;;;18.57;60.27
7168;BME280;3625;51.762;14.320;2023-05-31T08:08:46;101536.31;;;18.62;60.31
7168;BME280;3625;51.762;14.320;2023-05-31T08:11:15;101539.72;;;18.67;60.50
7168;BME280;3625;51.762;14.320;2023-05-31T08:13:44;101543.34;;;18.88;58.42
7168;BME280;3625;51.762;14.320;2023-05-31T08:16:12;101542.06;;;18.98;57.21
7168;BME280;3625;51.762;14.320;2023-05-31T08:18:41;101536.28;;;19.08;54.64
7168;BME280;3625;51.762;14.320;2023-05-31T08:21:12;101537.81;;;19.14;54.85
7168;BME280;3625;51.762;14.320;2023-05-31T08:23:42;101529.72;;;19.15;54.70
7168;BME280;3625;51.762;14.320;2023-05-31T08:26:13;101531.16;;;19.24;54.95
7168;BME280;3625;51.762;14.320;2023-05-31T08:28:42;101479.44;;;18.99;54.17
7168;BME280;3625;51.762;14.320;2023-05-31T08:31:10;101536.03;;;19.36;54.46
7168;BME280;3625;51.762;14.320;2023-05-31T08:33:53;101529.50;;;19.42;54.71
7168;BME280;3625;51.762;14.320;2023-05-31T08:36:23;101527.25;;;19.54;54.16
7168;BME280;3625;51.762;14.320;2023-05-31T08:38:52;101529.38;;;19.67;54.23
7168;BME280;3625;51.762;14.320;2023-05-31T08:41:24;101528.06;;;19.77;54.13
7168;BME280;3625;51.762;14.320;2023-05-31T08:43:55;101524.09;;;19.85;53.72
7168;BME280;3625;51.762;14.320;2023-05-31T08:46:27;101530.88;;;19.94;50.96
7168;BME280;3625;51.762;14.320;2023-05-31T08:49:04;101524.22;;;20.03;49.29
7168;BME280;3625;51.762;14.320;2023-05-31T08:51:36;101517.50;;;20.13;47.93
7168;BME280;3625;51.762;14.320;2023-05-31T08:54:06;101516.88;;;20.26;47.45
7168;BME280;3625;51.762;14.320;2023-05-31T08:56:38;101525.00;;;20.45;47.75
7168;BME280;3625;51.762;14.320;2023-05-31T08:59:11;101524.34;;;20.59;45.47
7168;BME280;3625;51.762;14.320;2023-05-31T09:01:44;101525.53;;;20.72;44.54
7168;BME280;3625;51.762;14.320;2023-05-31T09:04:15;101489.06;;;20.66;45.62
7168;BME280;3625;51.762;14.320;2023-05-31T09:06:44;101468.47;;;20.65;45.96
7168;BME280;3625;51.762;14.320;2023-05-31T09:09:12;101470.06;;;20.69;44.97
7168;BME280;3625;51.762;14.320;2023-05-31T09:11:44;101520.84;;;21.13;44.81
7168;BME280;3625;51.762;14.320;2023-05-31T09:14:14;101523.69;;;21.29;44.07
7168;BME280;3625;51.762;14.320;2023-05-31T09:16:43;101510.53;;;21.23;41.59
7168;BME280;3625;51.762;14.320;2023-05-31T09:19:14;101527.66;;;21.39;40.55
7168;BME280;3625;51.762;14.320;2023-05-31T09:21:45;101537.03;;;21.49;38.79
7168;BME280;3625;51.762;14.320;2023-05-31T09:24:14;101527.53;;;21.59;39.11
7168;BME280;3625;51.762;14.320;2023-05-31T09:26:48;101501.69;;;21.55;37.25
7168;BME280;3625;51.762;14.320;2023-05-31T09:29:17;101541.25;;;21.89;37.58
7168;BME280;3625;51.762;14.320;2023-05-31T09:31:46;101529.13;;;21.98;38.33
7168;BME280;3625;51.762;14.320;2023-05-31T09:34:26;101523.59;;;22.01;39.17
7168;BME280;3625;51.762;14.320;2023-05-31T09:36:58;101520.56;;;21.90;38.67
7168;BME280;3625;51.762;14.320;2023-05-31T09:39:28;101511.53;;;21.91;39.49
7168;BME280;3625;51.762;14.320;2023-05-31T09:41:58;101504.19;;;21.77;38.45
7168;BME280;3625;51.762;14.320;2023-05-31T09:44:27;101504.63;;;21.85;38.60
7168;BME280;3625;51.762;14.320;2023-05-31T09:47:07;101503.38;;;21.92;38.18
7168;BME280;3625;51.762;14.320;2023-05-31T09:49:35;101497.44;;;22.03;38.50
7168;BME280;3625;51.762;14.320;2023-05-31T09:52:05;101471.09;;;22.08;38.54
7168;BME280;3625;51.762;14.320;2023-05-31T09:54:39;101489.13;;;22.23;38.85
7168;BME280;3625;51.762;14.320;2023-05-31T09:57:29;101455.94;;;22.23;37.38
7168;BME280;3625;51.762;14.320;2023-05-31T09:59:59;101486.50;;;22.39;36.71
7168;BME280;3625;51.762;14.320;2023-05-31T10:02:39;101481.63;;;22.45;36.50
7168;BME280;3625;51.762;14.320;2023-05-31T10:05:11;101477.03;;;22.47;36.86
7168;BME280;3625;51.762;14.320;2023-05-31T10:07:49;101456.66;;;22.42;36.49
7168;BME280;3625;51.762;14.320;2023-05-31T10:10:18;101485.50;;;22.57;36.70
7168;BME280;3625;51.762;14.320;2023-05-31T10:12:53;101474.94;;;22.52;36.19
7168;BME280;3625;51.762;14.320;2023-05-31T10:15:23;101471.00;;;22.58;36.26
7168;BME280;3625;51.762;14.320;2023-05-31T10:17:58;101470.78;;;22.63;36.57
7168;BME280;3625;51.762;14.320;2023-05-31T10:20:36;101473.31;;;22.66;35.71
7168;BME280;3625;51.762;14.320;2023-05-31T10:23:14;101431.19;;;22.47;35.87
7168;BME280;3625;51.762;14.320;2023-05-31T10:25:54;101453.78;;;22.61;35.96
7168;BME280;3625;51.762;14.320;2023-05-31T10:28:31;101464.44;;;22.64;35.04
7168;BME280;3625;51.762;14.320;2023-05-31T10:31:04;101454.94;;;22.72;35.62
7168;BME280;3625;51.762;14.320;2023-05-31T10:33:33;101458.66;;;22.70;34.58
7168;BME280;3625;51.762;14.320;2023-05-31T10:36:02;101455.09;;;22.53;34.91
7168;BME280;3625;51.762;14.320;2023-05-31T10:38:42;101455.34;;;22.49;35.39
7168;BME280;3625;51.762;14.320;2023-05-31T10:41:21;101449.94;;;22.49;35.13
7168;BME280;3625;51.762;14.320;2023-05-31T10:44:05;101379.47;;;22.08;35.12
7168;BME280;3625;51.762;14.320;2023-05-31T10:46:39;101437.00;;;22.40;35.64
7168;BME280;3625;51.762;14.320;2023-05-31T10:49:10;101432.56;;;22.39;35.24
7168;BME280;3625;51.762;14.320;2023-05-31T10:51:39;101424.38;;;22.40;35.73
7168;BME280;3625;51.762;14.320;2023-05-31T10:54:15;101422.97;;;22.49;36.06
7168;BME280;3625;51.762;14.320;2023-05-31T10:56:52;101423.16;;;22.62;35.81
7168;BME280;3625;51.762;14.320;2023-05-31T10:59:25;101412.81;;;22.70;35.80
7168;BME280;3625;51.762;14.320;2023-05-31T11:01:56;101413.25;;;22.78;35.82
7168;BME280;3625;51.762;14.320;2023-05-31T11:04:27;101409.63;;;22.79;35.74
7168;BME280;3625;51.762;14.320;2023-05-31T11:07:14;101415.06;;;22.93;35.46
7168;BME280;3625;51.762;14.320;2023-05-31T11:09:55;101393.59;;;22.91;35.40
7168;BME280;3625;51.762;14.320;2023-05-31T11:12:36;101414.38;;;23.05;34.73
7168;BME280;3625;51.762;14.320;2023-05-31T11:15:14;101417.44;;;22.99;34.49
7168;BME280;3625;51.762;14.320;2023-05-31T11:17:51;101381.06;;;22.75;34.45
7168;BME280;3625;51.762;14.320;2023-05-31T11:20:21;101388.63;;;22.84;34.35
7168;BME280;3625;51.762;14.320;2023-05-31T11:23:24;101411.31;;;22.95;34.74
7168;BME280;3625;51.762;14.320;2023-05-31T11:26:15;101408.47;;;22.99;33.44
7168;BME280;3625;51.762;14.320;2023-05-31T11:28:57;101330.06;;;22.54;32.69
7168;BME280;3625;51.762;14.320;2023-05-31T11:31:59;101405.38;;;23.05;33.66
7168;BME280;3625;51.762;14.320;2023-05-31T11:34:31;101405.81;;;23.13;33.40
7168;BME280;3625;51.762;14.320;2023-05-31T11:37:03;101407.50;;;23.29;32.88
7168;BME280;3625;51.762;14.320;2023-05-31T11:39:32;101405.97;;;23.40;32.65
7168;BME280;3625;51.762;14.320;2023-05-31T11:42:03;101393.69;;;23.50;33.00
7168;BME280;3625;51.762;14.320;2023-05-31T11:44:41;101387.72;;;23.59;33.43
7168;BME280;3625;51.762;14.320;2023-05-31T11:47:17;101383.19;;;23.59;33.44
7168;BME280;3625;51.762;14.320;2023-05-31T11:49:47;101207.75;;;22.70;32.98
7168;BME280;3625;51.762;14.320;2023-05-31T11:52:17;101378.84;;;23.71;32.91
7168;BME280;3625;51.762;14.320;2023-05-31T11:54:48;101355.47;;;23.70;33.38
7168;BME280;3625;51.762;14.320;2023-05-31T11:57:17;101368.81;;;23.87;33.02
7168;BME280;3625;51.762;14.320;2023-05-31T11:59:49;101374.31;;;24.00;32.88
7168;BME280;3625;51.762;14.320;2023-05-31T12:02:20;101338.69;;;23.79;33.06
7168;BME280;3625;51.762;14.320;2023-05-31T12:04:50;101367.00;;;24.02;32.66
7168;BME280;3625;51.762;14.320;2023-05-31T12:07:18;101364.66;;;24.10;32.92
7168;BME280;3625;51.762;14.320;2023-05-31T12:09:47;101359.25;;;24.10;32.27
7168;BME280;3625;51.762;14.320;2023-05-31T12:12:16;101358.56;;;24.06;32.59
7168;BME280;3625;51.762;14.320;2023-05-31T12:14:50;101365.25;;;24.01;32.63
7168;BME280;3625;51.762;14.320;2023-05-31T12:17:21;101342.94;;;23.83;32.20
7168;BME280;3625;51.762;14.320;2023-05-31T12:19:50;101359.47;;;23.93;32.75
7168;BME280;3625;51.762;14.320;2023-05-31T12:22:20;101350.47;;;23.92;32.70
7168;BME280;3625;51.762;14.320;2023-05-31T12:24:50;101326.19;;;23.78;32.95
7168;BME280;3625;51.762;14.320;2023-05-31T12:27:21;101343.81;;;23.98;31.66
7168;BME280;3625;51.762;14.320;2023-05-31T12:30:16;101331.84;;;24.02;32.30
7168;BME280;3625;51.762;14.320;2023-05-31T12:32:47;101333.63;;;24.16;32.53
7168;BME280;3625;51.762;14.320;2023-05-31T12:35:16;101334.72;;;24.27;32.95
7168;BME280;3625;51.762;14.320;2023-05-31T12:37:45;101320.59;;;24.36;33.27
7168;BME280;3625;51.762;14.320;2023-05-31T12:40:15;101243.88;;;23.96;33.24
7168;BME280;3625;51.762;14.320;2023-05-31T12:42:48;101209.91;;;23.92;33.04
7168;BME280;3625;51.762;14.320;2023-05-31T12:45:18;101154.03;;;23.79;32.97
7168;BME280;3625;51.762;14.320;2023-05-31T12:47:56;101325.91;;;24.92;32.16
7168;BME280;3625;51.762;14.320;2023-05-31T12:50:28;101273.19;;;24.70;32.25
7168;BME280;3625;51.762;14.320;2023-05-31T12:52:57;101284.50;;;24.90;32.44
7168;BME280;3625;51.762;14.320;2023-05-31T12:55:28;101320.22;;;25.22;32.03
7168;BME280;3625;51.762;14.320;2023-05-31T12:58:00;101285.44;;;25.15;32.02
7168;BME280;3625;51.762;14.320;2023-05-31T13:00:33;101308.88;;;25.42;31.68
7168;BME280;3625;51.762;14.320;2023-05-31T13:03:03;101268.75;;;25.22;31.38
7168;BME280;3625;51.762;14.320;2023-05-31T13:05:32;101287.28;;;25.15;31.79
7168;BME280;3625;51.762;14.320;2023-05-31T13:08:00;101295.19;;;25.31;31.25
7168;BME280;3625;51.762;14.320;2023-05-31T13:10:29;101297.28;;;25.65;31.24
7168;BME280;3625;51.762;14.320;2023-05-31T13:12:57;101296.66;;;25.98;31.37
7168;BME280;3625;51.762;14.320;2023-05-31T13:15:26;101305.50;;;26.25;30.36
7168;BME280;3625;51.762;14.320;2023-05-31T13:17:54;101301.91;;;26.38;30.13
7168;BME280;3625;51.762;14.320;2023-05-31T13:20:24;101276.53;;;26.50;30.00
7168;BME280;3625;51.762;14.320;2023-05-31T13:22:53;101293.84;;;26.84;29.75
7168;BME280;3625;51.762;14.320;2023-05-31T13:25:25;101288.38;;;26.96;29.91
7168;BME280;3625;51.762;14.320;2023-05-31T13:27:56;101293.50;;;27.23;29.71